Terminal Aerodrome Forecast
Issued by NWS

Current Version | Previous Version | Text Only | Print | Product List | Glossary On
Versions: 1 2 3 4 5 6 7 8 9 10 11 12 13 14
000
FTUS45 KABQ 022012 AAA
TAFSAF
TAF AMD
KSAF 022012Z 0220/0318 06011KT P6SM VCSH BKN070
      TEMPO 0221/0224 VRB20G30KT 6SM -TSRA OVC035CB
     FM030000 14015G25KT P6SM VCSH OVC050
     FM030600 36008KT P6SM BKN080=

USA.gov is the U.S. government's official web portal to all federal, state and local government web resources and services.